Parkrose, Oregon
Current Conditions -  °F | °C
As of 12:31 AM on Tuesday 27 Jan 2015 (Local Time) from KTTD Reporting Station
Overcast Overcast  
Wind Chill: 42°   Ceiling: 1000
Heat Index: 44°   Visibility: 10mi
Dew Point: 40°   Wind: 5mph
Humidity: 85%   Direction: 100°E
Pressure: 30.02"   Gusts: NA
Location:  45.5423°N, 122.5°W
Report Text: KTTD 270831Z AUTO 10004KT 10SM OVC010 07/04 A3002 RMK AO2 T00670044
Loading
Personal Weather Stations






























Interactive Weather Map New forecast layout! Learn more

10-Day Weather Forecast

Advertisements
Track Severe Weather on mobile